Terminal Aerodrome Forecast
Issued by NWS Charleston, WV

Current Version | Previous Version | Text Only | Print | Product List | Glossary Off
Versions: 1 2 3 4 5 6 7 8 9 10 11 12 13 14 15 16 17 18 19 20 21 22 23 24 25

000
FTUS41 KRLX 231126
TAFCRW
TAF
KCRW 231126Z 2312/2412 02010G18KT 4SM -RA OVC027
     FM231300 02010G18KT 3SM -RA OVC011
      TEMPO 2313/2316 2SM -RA OVC008
     FM232100 02008KT 4SM -RA OVC008
     FM232300 36007KT P6SM OVC012
     FM240400 32007KT P6SM OVC008=

USA.gov is the U.S. government's official web portal to all federal, state and local government web resources and services.